Time;durP1;ratioP1;P1;durP2;ratioP2;P2;SDS_P1;SDS_P2;PMS_P1;PMS_P2;Temp;Humidity;BMP_temperature;BMP_pressure;BME280_temperature;BME280_humidity;BME280_pressure;Samples;Min_cycle;Max_cycle;Signal;HPM_P1;HPM_P2
2021/06/19 00:01:10;;;;;;;;;;;22.50;99.90;;;;;;5094127;28;20028;-79
2021/06/19 00:03:36;;;;;;;;;;;22.50;99.90;;;;;;5094473;28;19908;-79
2021/06/19 00:06:01;;;;;;;;;;;22.60;99.90;;;;;;5094039;28;19904;-79
2021/06/19 00:08:27;;;;;;;;;;;22.60;99.90;;;;;;5093096;28;20031;-80
2021/06/19 00:10:52;;;;;;;;;;;22.60;99.90;;;;;;5093596;28;19915;-79
2021/06/19 00:13:18;;;;;;;;;;;22.60;99.90;;;;;;5093608;28;19915;-79
2021/06/19 00:15:43;;;;;;;;;;;22.50;99.90;;;;;;5093461;28;19904;-79
2021/06/19 00:18:09;;;;;;;;;;;22.50;99.90;;;;;;5095352;28;19911;-80
2021/06/19 00:20:34;;;;;;;;;;;22.40;99.90;;;;;;5093954;28;20282;-80
2021/06/19 00:23:00;;;;;;;;;;;22.40;99.90;;;;;;5093513;28;20407;-80
2021/06/19 00:25:26;;;;;;;;;;;22.40;99.90;;;;;;5092505;28;19947;-79
2021/06/19 00:27:52;;;;;;;;;;;22.30;99.90;;;;;;5092900;28;20431;-79
2021/06/19 00:30:18;;;;;;;;;;;22.30;99.90;;;;;;5094307;28;20086;-79
2021/06/19 00:32:44;;;;;;;;;;;22.20;99.90;;;;;;5093139;28;19904;-79
2021/06/19 00:35:10;;;;;;;;;;;22.10;99.90;;;;;;5092598;28;19986;-79
2021/06/19 00:37:36;;;;;;;;;;;22.10;99.90;;;;;;5093201;28;19970;-80
2021/06/19 00:40:06;;;;;;;;;;;22.00;99.90;;;;;;5092319;28;19911;-79
2021/06/19 00:42:32;;;;;;;;;;;22.00;99.90;;;;;;5094224;28;19963;-80
2021/06/19 00:44:57;;;;;;;;;;;22.00;99.90;;;;;;5092956;28;19958;-79
2021/06/19 00:47:24;;;;;;;;;;;22.00;99.90;;;;;;5093182;28;19911;-80
2021/06/19 00:49:49;;;;;;;;;;;22.00;99.90;;;;;;5094365;28;20282;-80
2021/06/19 00:52:15;;;;;;;;;;;22.00;99.90;;;;;;5094178;28;19908;-80
2021/06/19 00:54:40;;;;;;;;;;;22.00;99.90;;;;;;5091669;28;24073;-80
2021/06/19 00:57:07;;;;;;;;;;;22.00;99.90;;;;;;5093218;28;19904;-80
2021/06/19 00:59:32;;;;;;;;;;;22.10;99.90;;;;;;5093873;28;19904;-81
2021/06/19 01:01:58;;;;;;;;;;;22.20;99.90;;;;;;5094092;28;20387;-80
2021/06/19 01:04:23;;;;;;;;;;;22.20;99.90;;;;;;5093167;28;19904;-79
2021/06/19 01:06:49;;;;;;;;;;;22.20;99.90;;;;;;5092594;28;19904;-78
2021/06/19 01:09:15;;;;;;;;;;;22.10;99.90;;;;;;5093199;28;19911;-80
2021/06/19 01:11:40;;;;;;;;;;;22.10;99.90;;;;;;5093095;28;20003;-78
2021/06/19 01:14:06;;;;;;;;;;;22.10;99.90;;;;;;5093611;28;20054;-80
2021/06/19 01:16:32;;;;;;;;;;;22.20;99.90;;;;;;5093570;28;20043;-80
2021/06/19 01:18:57;;;;;;;;;;;22.30;99.90;;;;;;5093166;28;20501;-80
2021/06/19 01:21:24;;;;;;;;;;;22.30;99.90;;;;;;5093368;28;20034;-80
2021/06/19 01:23:50;;;;;;;;;;;22.20;99.90;;;;;;5093366;28;20068;-80
2021/06/19 01:26:17;;;;;;;;;;;22.20;99.90;;;;;;5092977;28;20394;-80
2021/06/19 01:28:43;;;;;;;;;;;22.20;99.90;;;;;;5094437;28;20042;-81
2021/06/19 01:31:09;;;;;;;;;;;22.10;99.90;;;;;;5094593;28;19912;-80
2021/06/19 01:33:36;;;;;;;;;;;22.10;99.90;;;;;;5094651;28;20478;-80
2021/06/19 01:36:02;;;;;;;;;;;22.10;99.90;;;;;;5093271;28;20027;-81
2021/06/19 01:38:27;;;;;;;;;;;22.20;99.90;;;;;;5092773;28;20103;-80
2021/06/19 01:40:53;;;;;;;;;;;22.20;99.90;;;;;;5094542;28;20050;-79
2021/06/19 01:43:18;;;;;;;;;;;22.20;99.90;;;;;;5093125;28;20031;-79
2021/06/19 01:45:44;;;;;;;;;;;22.20;99.90;;;;;;5094011;28;20151;-80
2021/06/19 01:48:10;;;;;;;;;;;22.30;99.90;;;;;;5091497;28;20038;-79
2021/06/19 01:50:36;;;;;;;;;;;22.20;99.90;;;;;;5094207;28;25117;-79
2021/06/19 01:53:02;;;;;;;;;;;22.20;99.90;;;;;;5094341;28;20020;-80
2021/06/19 01:55:27;;;;;;;;;;;22.20;99.90;;;;;;5092424;28;19957;-81
2021/06/19 01:57:53;;;;;;;;;;;22.20;99.90;;;;;;5091946;28;20028;-81
2021/06/19 02:00:19;;;;;;;;;;;22.20;99.90;;;;;;5092125;28;24062;-79
2021/06/19 02:02:45;;;;;;;;;;;22.10;99.90;;;;;;5092587;28;20093;-79
2021/06/19 02:05:11;;;;;;;;;;;22.10;99.90;;;;;;5092244;28;20060;-80
2021/06/19 02:07:53;;;;;;;;;;;22.00;99.90;;;;;;5092837;28;20036;-79
2021/06/19 02:10:21;;;;;;;;;;;22.00;99.90;;;;;;5092833;28;20078;-80
2021/06/19 02:12:47;;;;;;;;;;;21.90;99.90;;;;;;5092365;28;20030;-81
2021/06/19 02:15:12;;;;;;;;;;;21.90;99.90;;;;;;5092869;28;20106;-80
2021/06/19 02:17:38;;;;;;;;;;;21.80;99.90;;;;;;5092328;28;20109;-80
2021/06/19 02:20:05;;;;;;;;;;;21.80;99.90;;;;;;5092451;28;20475;-80
2021/06/19 02:22:30;;;;;;;;;;;21.80;99.90;;;;;;5092685;28;20506;-80
2021/06/19 02:24:55;;;;;;;;;;;21.80;99.90;;;;;;5092441;28;19904;-80
2021/06/19 02:27:21;;;;;;;;;;;21.70;99.90;;;;;;5092639;28;20091;-79
2021/06/19 02:29:46;;;;;;;;;;;21.70;99.90;;;;;;5092128;28;20496;-81
2021/06/19 02:32:12;;;;;;;;;;;21.60;99.90;;;;;;5093651;28;20041;-81
2021/06/19 02:34:37;;;;;;;;;;;21.60;99.90;;;;;;5091953;28;20031;-82
2021/06/19 02:37:04;;;;;;;;;;;21.60;99.90;;;;;;5093585;28;20493;-82
2021/06/19 02:39:29;;;;;;;;;;;21.70;99.90;;;;;;5091890;28;20497;-79
2021/06/19 02:41:55;;;;;;;12.50;5.60;;;21.60;99.90;;;;;;5091827;28;20053;-80
2021/06/19 02:44:20;;;;;;;;;;;21.60;99.90;;;;;;5091194;28;20032;-79
2021/06/19 02:46:47;;;;;;;;;;;21.60;99.90;;;;;;5092490;28;20050;-80
2021/06/19 02:49:12;;;;;;;;;;;21.60;99.90;;;;;;5090870;28;19904;-82
2021/06/19 02:51:38;;;;;;;;;;;21.50;99.90;;;;;;5090920;28;19912;-81
2021/06/19 02:54:03;;;;;;;;;;;21.50;99.90;;;;;;5092501;28;25117;-81
2021/06/19 02:56:29;;;;;;;;;;;21.40;99.90;;;;;;5090429;28;19904;-80
2021/06/19 02:58:54;;;;;;;;;;;21.40;99.90;;;;;;5091127;28;19911;-80
2021/06/19 03:01:20;;;;;;;;;;;21.30;99.90;;;;;;5090836;28;20040;-80
2021/06/19 03:03:45;;;;;;;;;;;21.30;99.90;;;;;;5091698;28;20031;-80
2021/06/19 03:06:10;;;;;;;;;;;21.20;99.90;;;;;;5090468;28;20041;-81
2021/06/19 03:08:36;;;;;;;;;;;21.20;99.90;;;;;;5091336;28;20044;-81
2021/06/19 03:11:01;;;;;;;;;;;21.10;99.90;;;;;;5097992;28;19908;-81
2021/06/19 03:13:27;;;;;;;;;;;21.10;99.90;;;;;;5096603;28;20428;-81
2021/06/19 03:15:52;;;;;;;;;;;21.00;99.90;;;;;;5095102;28;20412;-82
2021/06/19 03:18:18;;;;;;;;;;;21.00;99.90;;;;;;5098417;28;20027;-81
2021/06/19 03:20:43;;;;;;;;;;;20.90;99.90;;;;;;5098577;28;19911;-82
2021/06/19 03:23:09;;;;;;;;;;;20.90;99.90;;;;;;5100881;28;19904;-81
2021/06/19 03:25:36;;;;;;;;;;;20.90;99.90;;;;;;5098363;28;19904;-81
2021/06/19 03:28:03;;;;;;;;;;;20.90;99.90;;;;;;5098924;28;19947;-81
2021/06/19 03:30:29;;;;;;;;;;;20.90;99.90;;;;;;5099830;28;19918;-81
2021/06/19 03:32:55;;;;;;;;;;;20.90;99.90;;;;;;5100452;28;20388;-81
2021/06/19 03:35:21;;;;;;;;;;;20.80;99.90;;;;;;5098266;28;24086;-81
2021/06/19 03:37:46;;;;;;;;;;;20.80;99.90;;;;;;5098665;28;19904;-80
2021/06/19 03:40:14;;;;;;;;;;;20.80;99.90;;;;;;5099963;28;19957;-81
2021/06/19 03:42:39;;;;;;;;;;;20.80;99.90;;;;;;5098059;28;20347;-80
2021/06/19 03:45:06;;;;;;;;;;;20.80;99.90;;;;;;5099881;28;19912;-82
2021/06/19 03:47:31;;;;;;;;;;;20.80;99.90;;;;;;5098398;28;19950;-80
2021/06/19 03:49:57;;;;;;;;;;;20.80;99.90;;;;;;5098140;28;19904;-82
2021/06/19 03:52:22;;;;;;;;;;;20.80;99.90;;;;;;5097682;28;19908;-81
2021/06/19 03:54:48;;;;;;;;;;;20.80;99.90;;;;;;5097632;28;19908;-81
2021/06/19 03:57:27;;;;;;;;;;;20.80;99.90;;;;;;5097342;28;19904;-80
2021/06/19 03:59:53;;;;;;;;;;;20.80;99.90;;;;;;5098619;28;19903;-81
2021/06/19 04:02:19;;;;;;;;;;;20.80;99.90;;;;;;5098318;28;19914;-82
2021/06/19 04:04:44;;;;;;;;;;;20.90;99.90;;;;;;5096603;28;20025;-81
2021/06/19 04:07:11;;;;;;;;;;;21.00;99.90;;;;;;5097976;28;24065;-80
2021/06/19 04:09:37;;;;;;;;;;;21.10;99.90;;;;;;5096989;28;24065;-81
2021/06/19 04:12:02;;;;;;;;;;;21.10;99.90;;;;;;5098188;28;25118;-81
2021/06/19 04:14:28;;;;;;;;;;;21.20;99.90;;;;;;5096489;28;24060;-79
2021/06/19 04:16:53;;;;;;;;;;;21.20;99.90;;;;;;5096757;28;19904;-80
2021/06/19 04:19:19;;;;;;;;;;;21.20;99.90;;;;;;5096317;28;20394;-82
2021/06/19 04:21:44;;;;;;;;;;;21.30;99.90;;;;;;5096924;28;24114;-81
2021/06/19 04:24:09;;;;;;;;;;;21.40;99.90;;;;;;5099051;28;19911;-81
2021/06/19 04:26:35;;;;;;;;;;;21.40;99.90;;;;;;5098390;28;19908;-81
2021/06/19 04:29:01;;;;;;;9.95;6.05;;;21.50;99.90;;;;;;5096541;28;20290;-83
2021/06/19 04:31:26;;;;;;;;;;;21.70;99.90;;;;;;5094323;28;20046;-84
2021/06/19 04:33:52;;;;;;;8.40;6.00;;;21.80;99.90;;;;;;5095045;28;20032;-82
2021/06/19 04:36:19;;;;;;;17.55;6.55;;;21.80;99.90;;;;;;5095300;28;20366;-80
2021/06/19 04:38:44;;;;;;;;;;;22.10;99.90;;;;;;5094507;28;19904;-81
2021/06/19 04:41:22;;;;;;;9.03;6.60;;;22.30;99.90;;;;;;5095439;28;19983;-83
2021/06/19 04:46:14;;;;;;;7.32;5.20;;;24.70;99.90;;;;;;5094132;28;20024;-83
2021/06/19 04:48:39;;;;;;;6.13;4.27;;;24.50;99.90;;;;;;5092129;28;20035;-82
2021/06/19 04:51:05;;;;;;;7.30;5.37;;;25.00;99.90;;;;;;5093027;28;20124;-81
2021/06/19 04:53:31;;;;;;;12.87;6.23;;;26.80;99.90;;;;;;5092832;28;20119;-81
2021/06/19 04:56:00;;;;;;;8.60;5.13;;;27.70;99.90;;;;;;5092916;28;20020;-82
2021/06/19 04:58:26;;;;;;;9.55;4.30;;;27.50;99.90;;;;;;5092762;28;19904;-83
2021/06/19 05:00:51;;;;;;;6.67;4.37;;;27.30;99.90;;;;;;5092530;28;20453;-82
2021/06/19 05:03:18;;;;;;;5.73;4.13;;;26.50;99.90;;;;;;5092172;28;20020;-82
2021/06/19 05:05:44;;;;;;;8.02;4.90;;;26.00;99.90;;;;;;5093564;28;20428;-82
2021/06/19 05:08:09;;;;;;;8.90;4.47;;;25.50;99.90;;;;;;5091965;28;20032;-82
2021/06/19 05:10:35;;;;;;;5.97;4.10;;;24.90;99.90;;;;;;5092847;28;20028;-83
2021/06/19 05:13:01;;;;;;;10.97;5.13;;;24.70;99.90;;;;;;5093154;28;19995;-83
2021/06/19 05:15:26;;;;;;;6.93;4.57;;;24.90;99.90;;;;;;5092661;28;20248;-83
2021/06/19 05:17:54;;;;;;;6.23;4.00;;;25.20;99.90;;;;;;5092663;28;20032;-82
2021/06/19 05:20:19;;;;;;;7.40;3.90;;;25.60;99.90;;;;;;5092130;28;20020;-85
2021/06/19 05:22:45;;;;;;;8.70;4.40;;;25.60;99.90;;;;;;5091770;28;20041;-81
2021/06/19 05:25:13;;;;;;;5.30;3.83;;;25.60;99.90;;;;;;5089325;28;20419;-82
2021/06/19 05:27:39;;;;;;;5.78;4.00;;;25.50;99.90;;;;;;5081771;28;20047;-81
2021/06/19 05:30:05;;;;;;;9.63;4.65;;;25.30;99.90;;;;;;5079736;28;19916;-82
2021/06/19 05:32:31;;;;;;;9.02;5.60;;;25.20;99.90;;;;;;5078818;28;19931;-84
2021/06/19 05:34:57;;;;;;;9.57;5.03;;;25.30;99.90;;;;;;5081824;28;20337;-82
2021/06/19 05:37:22;;;;;;;7.60;3.97;;;25.40;99.90;;;;;;5091673;28;19911;-82
2021/06/19 05:39:48;;;;;;;6.83;3.83;;;25.50;99.90;;;;;;5089585;28;20123;-82
2021/06/19 05:42:13;;;;;;;11.00;5.97;;;25.60;99.90;;;;;;5090347;28;19911;-83
2021/06/19 05:44:39;;;;;;;5.20;3.70;;;25.80;99.90;;;;;;5090145;28;20047;-82
2021/06/19 05:47:06;;;;;;;5.57;4.20;;;25.90;99.90;;;;;;5090920;28;20347;-82
2021/06/19 05:49:31;;;;;;;;;;;26.10;99.90;;;;;;5091226;28;19954;-82
2021/06/19 05:51:57;;;;;;;7.32;4.45;;;26.70;99.90;;;;;;5090635;28;19947;-83
2021/06/19 05:54:23;;;;;;;13.90;5.20;;;27.40;99.90;;;;;;5090583;28;19908;-82
2021/06/19 05:57:00;;;;;;;9.00;5.60;;;27.10;99.90;;;;;;5091053;28;20155;-82
2021/06/19 05:59:49;;;;;;;11.00;5.28;;;26.80;99.90;;;;;;5090544;28;20052;-83
2021/06/19 06:02:14;;;;;;;5.95;5.10;;;26.60;99.90;;;;;;5092694;28;19927;-84
2021/06/19 06:04:40;;;;;;;6.00;4.90;;;26.60;99.90;;;;;;5090575;28;20382;-82
2021/06/19 06:07:05;;;;;;;7.50;4.70;;;27.10;99.90;;;;;;5089912;28;20043;-81
2021/06/19 06:09:31;;;;;;;;;;;29.00;99.90;;;;;;5077705;28;20065;-81
2021/06/19 06:11:57;;;;;;;8.60;5.10;;;31.00;99.90;;;;;;5073973;28;20065;-81
2021/06/19 06:14:23;;;;;;;;;;;31.60;99.90;;;;;;5074280;28;19973;-82
2021/06/19 06:16:48;;;;;;;11.20;4.90;;;30.90;99.90;;;;;;5073950;28;20088;-80
2021/06/19 06:19:16;;;;;;;7.10;5.30;;;29.50;99.90;;;;;;5073918;28;20048;-81
2021/06/19 06:21:42;;;;;;;;;;;28.80;99.90;;;;;;5073684;28;19958;-83
2021/06/19 06:24:07;;;;;;;;;;;28.90;99.90;;;;;;5075958;28;20044;-82
2021/06/19 06:26:33;;;;;;;8.40;4.80;;;30.20;99.90;;;;;;5075129;28;20044;-81
2021/06/19 06:28:58;;;;;;;9.45;4.40;;;30.70;99.90;;;;;;5074930;28;20051;-81
2021/06/19 06:31:24;;;;;;;6.85;4.35;;;31.80;99.90;;;;;;5074618;28;20028;-82
2021/06/19 06:33:50;;;;;;;7.80;4.20;;;33.90;99.90;;;;;;5075112;28;19969;-82
2021/06/19 06:36:15;;;;;;;7.70;4.40;;;35.20;99.90;;;;;;5074947;28;20115;-81
2021/06/19 06:38:41;;;;;;;4.00;3.60;;;35.60;99.90;;;;;;5074386;28;20025;-81
2021/06/19 06:41:06;;;;;;;5.00;4.20;;;35.40;99.90;;;;;;5074701;28;20166;-82
2021/06/19 06:43:32;;;;;;;6.50;3.60;;;36.40;99.30;;;;;;5076181;28;20043;-83
2021/06/19 06:45:57;;;;;;;6.45;4.05;;;36.70;96.30;;;;;;5075051;28;19908;-82
2021/06/19 06:48:24;;;;;;;7.53;4.10;;;36.90;96.20;;;;;;5074274;28;20471;-81
2021/06/19 06:50:50;;;;;;;5.85;3.42;;;37.10;95.00;;;;;;5075797;28;20306;-81
2021/06/19 06:53:16;;;;;;;3.60;3.30;;;38.20;92.40;;;;;;5078909;28;20099;-82
2021/06/19 06:55:41;;;;;;;5.63;3.27;;;39.00;90.80;;;;;;5077729;28;20083;-81
2021/06/19 06:58:07;;;;;;;6.30;3.10;;;39.20;89.40;;;;;;5077176;28;20085;-82
2021/06/19 07:00:33;;;;;;;6.60;3.10;;;39.00;88.20;;;;;;5076889;28;19904;-81
2021/06/19 07:02:59;;;;;;;;;;;39.40;85.70;;;;;;5078916;28;20359;-82
2021/06/19 07:05:25;;;;;;;4.83;3.30;;;39.30;84.10;;;;;;5077308;28;20039;-82
2021/06/19 07:07:50;;;;;;;3.87;2.93;;;38.50;86.20;;;;;;5077755;28;20030;-81
2021/06/19 07:10:16;;;;;;;5.33;3.80;;;37.80;85.90;;;;;;5076842;28;20031;-82
2021/06/19 07:12:44;;;;;;;4.40;3.20;;;36.70;88.40;;;;;;5076837;28;19911;-82
2021/06/19 07:15:11;;;;;;;;;;;35.50;88.30;;;;;;5079080;28;20056;-82
2021/06/19 07:17:37;;;;;;;5.50;3.60;;;34.20;90.60;;;;;;5077203;28;20156;-81
2021/06/19 07:20:05;;;;;;;5.47;3.63;;;32.60;92.40;;;;;;5076725;28;19904;-81
2021/06/19 07:22:30;;;;;;;5.70;3.00;;;32.40;94.30;;;;;;5076909;28;20464;-82
2021/06/19 07:24:56;;;;;;;4.90;3.35;;;32.50;93.50;;;;;;5078520;28;19947;-81
2021/06/19 07:27:21;;;;;;;;;;;32.50;94.80;;;;;;5076900;28;20159;-81
2021/06/19 07:29:47;;;;;;;;;;;32.50;94.60;;;;;;5076622;28;20043;-81
2021/06/19 07:32:12;;;;;;;;;;;32.30;94.30;;;;;;5076642;28;20492;-79
2021/06/19 07:34:38;;;;;;;;;;;32.90;95.00;;;;;;5076447;28;20635;-81
2021/06/19 07:37:03;;;;;;;;;;;33.50;94.60;;;;;;5076514;28;20021;-82
2021/06/19 07:39:29;;;;;;;;;;;33.80;95.10;;;;;;5076800;28;20119;-81
2021/06/19 07:41:55;;;;;;;;;;;35.20;93.40;;;;;;5076444;28;20160;-82
2021/06/19 07:44:20;;;;;;;;;;;36.40;92.50;;;;;;5077048;28;20048;-81
2021/06/19 07:46:47;;;;;;;;;;;36.50;90.60;;;;;;5077142;28;20468;-81
2021/06/19 07:49:12;;;;;;;;;;;36.10;90.80;;;;;;5076246;28;19957;-80
2021/06/19 07:51:38;;;;;;;;;;;34.70;90.70;;;;;;5076572;28;20025;-81
2021/06/19 07:54:04;;;;;;;;;;;33.40;94.40;;;;;;5076667;28;20027;-81
2021/06/19 07:56:29;;;;;;;;;;;33.00;95.20;;;;;;5076482;28;20028;-81
2021/06/19 07:58:55;;;;;;;;;;;33.20;93.20;;;;;;5078325;28;20407;-83
2021/06/19 08:01:20;;;;;;;;;;;32.90;92.70;;;;;;5076078;28;20375;-82
2021/06/19 08:03:46;;;;;;;;;;;32.40;93.90;;;;;;5077665;28;20095;-82
2021/06/19 08:06:11;;;;;;;;;;;31.80;95.10;;;;;;5076100;28;20470;-81
2021/06/19 08:08:37;;;;;;;;;;;31.60;95.70;;;;;;5077969;28;20099;-81
2021/06/19 08:11:02;;;;;;;;;;;31.50;96.40;;;;;;5076220;28;20031;-81
2021/06/19 08:13:28;;;;;;;;;;;31.60;97.30;;;;;;5078483;28;20482;-81
2021/06/19 08:15:57;;;;;;;;;;;32.30;94.80;;;;;;5075902;28;20111;-82
2021/06/19 08:18:22;;;;;;;;;;;32.10;94.90;;;;;;5076143;28;20141;-81
2021/06/19 08:20:48;;;;;;;;;;;33.00;91.60;;;;;;5077958;28;20539;-81
2021/06/19 08:23:13;;;;;;;;;;;33.40;92.50;;;;;;5075811;28;20487;-82
2021/06/19 08:25:39;;;;;;;;;;;33.20;92.10;;;;;;5076443;28;20048;-81
2021/06/19 08:28:04;;;;;;;;;;;33.20;93.30;;;;;;5075557;28;20403;-81
2021/06/19 08:30:30;;;;;;;;;;;33.00;90.80;;;;;;5075087;28;20050;-82
2021/06/19 08:32:55;;;;;;;;;;;33.30;91.70;;;;;;5077381;28;20361;-81
2021/06/19 08:35:21;;;;;;;;;;;34.00;89.20;;;;;;5077970;28;20085;-81
2021/06/19 08:37:46;;;;;;;;;;;33.60;91.30;;;;;;5076864;28;20028;-81
2021/06/19 08:40:12;;;;;;;;;;;33.10;90.00;;;;;;5075884;28;20048;-80
2021/06/19 08:42:37;;;;;;;;;;;32.80;92.40;;;;;;5075285;28;20480;-82
2021/06/19 08:45:04;;;;;;;;;;;32.80;93.60;;;;;;5075668;28;20071;-81
2021/06/19 08:47:35;;;;;;;;;;;33.10;91.60;;;;;;5075530;28;20047;-84
2021/06/19 08:50:06;;;;;;;;;;;32.80;92.60;;;;;;5075410;28;19995;-80
2021/06/19 08:52:33;;;;;;;;;;;32.90;92.70;;;;;;5076915;28;20040;-82
2021/06/19 08:54:58;;;;;;;;;;;32.70;92.00;;;;;;5075667;28;20023;-81
2021/06/19 08:57:24;;;;;;;;;;;32.50;91.50;;;;;;5075587;28;20036;-82
2021/06/19 08:59:50;;;;;;;;;;;32.80;90.70;;;;;;5074655;28;20028;-81
2021/06/19 09:02:16;;;;;;;;;;;33.00;92.60;;;;;;5076522;28;19912;-84
2021/06/19 09:04:49;;;;;;;;;;;33.00;89.20;;;;;;5075862;28;20028;-81
2021/06/19 09:07:33;;;;;;;;;;;33.10;91.80;;;;;;5077158;28;20427;-81
2021/06/19 09:10:14;;;;;;;;;;;33.10;91.40;;;;;;5075398;28;20052;-82
2021/06/19 09:12:39;;;;;;;;;;;33.30;89.70;;;;;;5074669;28;20035;-81
2021/06/19 09:15:15;;;;;;;;;;;33.10;92.10;;;;;;5073719;28;19904;-84
2021/06/19 09:17:40;;;;;;;;;;;33.10;92.70;;;;;;5074609;28;20020;-81
2021/06/19 09:20:06;;;;;;;;;;;33.30;89.40;;;;;;5074544;28;20111;-82
2021/06/19 09:22:31;;;;;;;;;;;33.30;90.90;;;;;;5074625;28;20028;-83
2021/06/19 09:24:58;;;;;;;;;;;33.20;91.30;;;;;;5074688;28;20538;-82
2021/06/19 09:27:30;;;;;;;;;;;33.00;88.60;;;;;;5074406;28;20119;-82
2021/06/19 09:30:05;;;;;;;;;;;33.00;91.00;;;;;;5073635;28;20024;-82
2021/06/19 09:32:30;;;;;;;;;;;33.30;89.60;;;;;;5072884;28;20388;-82
2021/06/19 09:35:09;;;;;;;;;;;33.20;91.40;;;;;;5073802;28;20024;-81
2021/06/19 09:37:38;;;;;;;;;;;33.10;92.10;;;;;;5073321;28;20113;-81
2021/06/19 09:40:18;;;;;;;;;;;33.10;90.80;;;;;;5073377;28;20023;-80
2021/06/19 09:42:43;;;;;;;;;;;33.50;91.60;;;;;;5073832;28;20032;-82
2021/06/19 09:45:16;;;;;;;;;;;33.90;92.50;;;;;;5073521;28;20483;-83
2021/06/19 09:47:42;;;;;;;;;;;33.50;89.60;;;;;;5073094;28;20042;-81
2021/06/19 09:50:08;;;;;;;;;;;33.70;89.50;;;;;;5074672;28;20288;-82
2021/06/19 09:52:33;;;;;;;;;;;33.70;90.70;;;;;;5074446;28;20025;-80
2021/06/19 09:54:59;;;;;;;;;;;33.80;91.50;;;;;;5074505;28;20057;-82
2021/06/19 09:57:38;;;;;;;;;;;33.80;90.80;;;;;;5073508;28;20043;-83
2021/06/19 10:00:04;;;;;;;;;;;33.90;91.90;;;;;;5074074;28;20024;-80
2021/06/19 10:02:33;;;;;;;;;;;33.60;87.60;;;;;;5073138;28;20024;-81
2021/06/19 10:04:58;;;;;;;;;;;33.20;87.70;;;;;;5072233;28;20032;-81
2021/06/19 10:07:25;;;;;;;;;;;33.10;88.30;;;;;;5072910;28;20041;-81
2021/06/19 10:09:51;;;;;;;;;;;33.30;88.40;;;;;;5072630;28;20052;-83
2021/06/19 10:12:21;;;;;;;;;;;33.50;89.20;;;;;;5072710;28;20507;-81
2021/06/19 10:14:48;;;;;;;;;;;33.10;90.00;;;;;;5072866;28;20029;-83
2021/06/19 10:17:16;;;;;;;;;;;33.30;88.50;;;;;;5074522;28;20046;-81
2021/06/19 10:19:42;;;;;;;;;;;33.70;90.70;;;;;;5072465;28;20070;-82
2021/06/19 10:22:08;;;;;;;;;;;34.10;90.20;;;;;;5072824;28;20422;-82
2021/06/19 10:24:36;;;;;;;;;;;34.40;91.50;;;;;;5074467;28;20205;-82
2021/06/19 10:27:02;;;;;;;4.30;3.20;;;34.50;90.80;;;;;;5075486;28;20375;-81
2021/06/19 10:29:28;;;;;;;2.58;2.35;;;35.00;90.20;;;;;;5078185;28;20146;-84
2021/06/19 10:31:55;;;;;;;3.85;2.45;;;35.60;89.40;;;;;;5078194;28;20029;-82
2021/06/19 10:34:25;;;;;;;6.10;3.15;;;35.50;87.60;;;;;;5076782;28;20020;-82
2021/06/19 10:37:03;;;;;;;6.32;3.20;;;35.80;85.20;;;;;;5078134;28;20383;-82
2021/06/19 10:39:43;;;;;;;3.47;2.88;;;36.00;85.90;;;;;;5076104;28;20357;-82
2021/06/19 10:42:44;;;;;;;3.00;2.13;;;36.30;86.10;;;;;;5076704;28;20399;-80
2021/06/19 10:45:22;;;;;;;3.40;2.45;;;36.40;86.30;;;;;;5018394;28;20044;-84
2021/06/19 10:47:59;;;;;;;4.03;2.20;;;37.40;85.90;;;;;;5068842;28;20032;-83
2021/06/19 10:50:25;;;;;;;4.97;2.88;;;37.70;81.80;;;;;;5076113;28;20020;-80
2021/06/19 10:53:12;;;;;;;4.22;2.80;;;37.90;87.20;;;;;;5077249;28;20487;-83
2021/06/19 10:55:43;;;;;;;5.25;3.45;;;38.40;83.40;;;;;;5078031;28;20024;-85
2021/06/19 10:58:18;;;;;;;5.13;3.20;;;38.30;84.60;;;;;;5077677;28;20028;-80
2021/06/19 11:00:45;;;;;;;4.30;2.47;;;37.70;80.60;;;;;;5076360;28;20076;-81
2021/06/19 11:03:12;;;;;;;4.38;2.50;;;38.30;83.60;;;;;;5077451;28;20378;-82
2021/06/19 11:05:40;;;;;;;6.07;3.38;;;38.80;82.70;;;;;;5076586;28;20055;-82
2021/06/19 11:08:07;;;;;;;4.75;2.80;;;38.30;81.10;;;;;;5077870;28;20024;-80
2021/06/19 11:10:55;;;;;;;6.00;2.78;;;38.10;85.90;;;;;;5076140;28;20025;-83
2021/06/19 11:13:29;;;;;;;3.75;2.85;;;38.10;84.90;;;;;;5077628;28;20016;-84
2021/06/19 11:16:02;;;;;;;4.87;3.33;;;37.60;84.40;;;;;;5076541;28;20029;-80
2021/06/19 11:18:46;;;;;;;5.40;3.35;;;37.90;81.30;;;;;;5076515;28;20338;-84
2021/06/19 11:21:13;;;;;;;4.03;2.90;;;37.40;84.80;;;;;;5078084;28;20118;-80
2021/06/19 11:24:04;;;;;;;8.50;3.03;;;37.00;84.70;;;;;;5078000;28;20224;-82
2021/06/19 11:27:00;;;;;;;;;;;36.00;85.10;;;;;;5076332;28;20036;-82
2021/06/19 11:29:38;;;;;;;;;;;35.60;86.00;;;;;;5075981;28;19947;-79
2021/06/19 11:32:23;;;;;;;;;;;35.70;85.30;;;;;;5075584;28;19909;-81
2021/06/19 11:34:48;;;;;;;;;;;35.50;85.50;;;;;;5075633;28;19908;-80
2021/06/19 11:37:14;;;;;;;;;;;35.30;84.40;;;;;;5077080;28;19912;-80
2021/06/19 11:39:39;;;;;;;;;;;35.20;88.30;;;;;;5076016;28;19908;-82
2021/06/19 11:42:05;;;;;;;6.23;3.43;;;35.20;85.30;;;;;;5077705;28;20084;-81
2021/06/19 11:44:32;;;;;;;5.50;2.95;;;35.00;86.70;;;;;;5075640;28;20456;-80
2021/06/19 11:47:00;;;;;;;6.53;3.08;;;34.90;84.80;;;;;;5076293;28;20048;-81
2021/06/19 11:49:28;;;;;;;4.05;3.22;;;34.80;87.70;;;;;;5075455;28;20033;-81
2021/06/19 11:51:54;;;;;;;5.03;3.00;;;34.80;86.20;;;;;;5075400;28;20055;-80
2021/06/19 11:54:20;;;;;;;7.00;3.80;;;34.80;90.30;;;;;;5077044;28;20056;-80
2021/06/19 11:56:46;;;;;;;6.47;3.08;;;35.00;91.90;;;;;;5075392;28;20048;-79
2021/06/19 11:59:14;;;;;;;4.60;3.83;;;35.10;90.30;;;;;;5076957;28;20021;-81
2021/06/19 12:01:44;;;;;;;4.00;3.13;;;35.20;87.30;;;;;;5076537;28;20081;-81
2021/06/19 12:04:18;;;;;;;6.00;3.60;;;35.50;90.20;;;;;;5076719;28;20017;-81
2021/06/19 12:07:04;;;;;;;5.05;3.17;;;35.70;88.20;;;;;;5075212;28;20115;-81
2021/06/19 12:09:36;;;;;;;;;;;35.70;87.90;;;;;;5074852;28;20037;-80
2021/06/19 12:12:08;;;;;;;9.07;3.58;;;35.30;83.80;;;;;;5075119;28;19965;-82
2021/06/19 12:14:36;;;;;;;6.75;3.53;;;35.30;89.00;;;;;;5074903;28;20025;-81
2021/06/19 12:17:06;;;;;;;6.20;3.35;;;35.40;89.80;;;;;;5074966;28;20028;-80
2021/06/19 12:19:33;;;;;;;7.70;3.42;;;35.30;88.90;;;;;;5076057;28;20024;-80
2021/06/19 12:22:04;;;;;;;5.13;3.08;;;35.30;90.70;;;;;;5075890;28;20029;-80
2021/06/19 12:24:33;;;;;;;7.38;3.15;;;35.20;87.30;;;;;;5075683;28;20036;-80
2021/06/19 12:27:08;;;;;;;6.68;3.20;;;35.30;87.50;;;;;;5074631;28;20029;-80
2021/06/19 12:30:07;;;;;;;8.43;3.88;;;35.20;90.50;;;;;;5074457;28;20025;-81
2021/06/19 12:32:35;;;;;;;9.68;3.22;;;35.30;87.10;;;;;;5066159;28;20041;-82
2021/06/19 12:35:04;;;;;;;12.10;3.92;;;35.40;86.60;;;;;;5074364;28;20032;-81
2021/06/19 12:37:34;;;;;;;4.22;3.20;;;35.60;86.60;;;;;;5074512;28;20035;-81
2021/06/19 12:40:01;;;;;;;5.65;2.90;;;35.40;86.60;;;;;;5074169;28;20063;-81
2021/06/19 12:42:48;;;;;;;6.30;3.47;;;35.50;87.20;;;;;;5076401;28;20422;-80
2021/06/19 12:45:19;;;;;;;5.47;3.13;;;35.30;84.00;;;;;;5075519;28;20056;-81
2021/06/19 12:47:46;;;;;;;;;;;35.00;82.80;;;;;;5074270;28;20074;-82
2021/06/19 12:50:13;;;;;;;;;;;35.00;86.50;;;;;;5073819;28;20374;-81
2021/06/19 12:53:04;;;;;;;;;;;34.90;85.50;;;;;;5057483;28;19927;-82
2021/06/19 12:55:31;;;;;;;;;;;34.80;86.20;;;;;;5070720;28;19904;-81
2021/06/19 12:58:04;;;;;;;;;;;35.00;88.70;;;;;;5075174;28;24070;-81
2021/06/19 13:00:36;;;;;;;;;;;35.30;87.30;;;;;;5073142;28;19912;-80
2021/06/19 13:03:01;;;;;;;;;;;35.50;85.20;;;;;;5074500;28;19904;-81
2021/06/19 13:05:26;;;;;;;;;;;35.40;85.60;;;;;;5072861;28;24059;-80
2021/06/19 13:08:08;;;;;;;;;;;35.30;85.10;;;;;;5073055;28;19904;-81
2021/06/19 13:10:33;;;;;;;;;;;35.00;83.60;;;;;;5074592;28;24062;-82
2021/06/19 13:12:59;;;;;;;;;;;34.90;81.90;;;;;;5074530;28;20295;-80
2021/06/19 13:15:26;;;;;;;;;;;34.80;87.10;;;;;;5073227;28;19954;-80
2021/06/19 13:17:51;;;;;;;;;;;35.10;88.00;;;;;;5073625;28;24150;-81
2021/06/19 13:20:23;;;;;;;;;;;35.50;84.10;;;;;;5074867;28;19994;-82
2021/06/19 13:23:03;;;;;;;;;;;35.30;85.20;;;;;;5074905;28;19926;-81
2021/06/19 13:25:47;;;;;;;;;;;35.30;86.40;;;;;;5073473;28;20359;-82
2021/06/19 13:28:13;;;;;;;;;;;35.10;90.70;;;;;;5074326;28;19904;-81
2021/06/19 13:30:38;;;;;;;;;;;34.60;84.70;;;;;;5073364;28;19911;-82
2021/06/19 13:33:04;;;;;;;;;;;34.40;87.50;;;;;;5075869;28;19905;-80
2021/06/19 13:35:29;;;;;;;;;;;34.20;89.10;;;;;;5073808;28;20363;-82
2021/06/19 13:37:58;;;;;;;;;;;34.10;87.10;;;;;;5073823;28;19904;-81
2021/06/19 13:40:27;;;;;;;;;;;33.90;89.70;;;;;;5074321;28;20298;-82
2021/06/19 13:42:56;;;;;;;;;;;33.90;87.10;;;;;;5074375;28;19950;-82
2021/06/19 13:45:21;;;;;;;;;;;33.70;90.70;;;;;;5073601;28;20023;-82
2021/06/19 13:47:47;;;;;;;;;;;33.70;92.40;;;;;;5075012;28;19909;-81
2021/06/19 13:50:14;;;;;;;;;;;33.80;91.20;;;;;;5073924;28;20136;-80